sensor_id;sensor_type;location;lat;lon;timestamp;P1;durP1;ratioP1;P2;durP2;ratioP2
24635;SDS011;12772;49.794;10.024;2023-04-25T00:02:08;3.30;;;3.00;;
24635;SDS011;12772;49.794;10.024;2023-04-25T00:06:10;4.25;;;3.42;;
24635;SDS011;12772;49.794;10.024;2023-04-25T00:10:12;2.75;;;2.55;;
24635;SDS011;12772;49.794;10.024;2023-04-25T00:14:15;3.42;;;2.72;;
24635;SDS011;12772;49.794;10.024;2023-04-25T00:18:17;3.20;;;2.90;;
24635;SDS011;12772;49.794;10.024;2023-04-25T00:22:19;3.40;;;3.08;;
24635;SDS011;12772;49.794;10.024;2023-04-25T00:26:21;3.17;;;2.90;;
24635;SDS011;12772;49.794;10.024;2023-04-25T00:30:23;3.17;;;2.88;;
24635;SDS011;12772;49.794;10.024;2023-04-25T00:34:25;3.13;;;2.75;;
24635;SDS011;12772;49.794;10.024;2023-04-25T00:38:28;3.08;;;2.88;;
24635;SDS011;12772;49.794;10.024;2023-04-25T00:42:30;3.10;;;2.90;;
24635;SDS011;12772;49.794;10.024;2023-04-25T00:46:32;3.45;;;3.15;;
24635;SDS011;12772;49.794;10.024;2023-04-25T00:50:36;2.88;;;2.67;;
24635;SDS011;12772;49.794;10.024;2023-04-25T00:54:39;3.50;;;3.20;;
24635;SDS011;12772;49.794;10.024;2023-04-25T00:58:41;4.03;;;3.03;;
24635;SDS011;12772;49.794;10.024;2023-04-25T01:02:44;3.45;;;3.15;;
24635;SDS011;12772;49.794;10.024;2023-04-25T01:06:46;3.50;;;3.20;;
24635;SDS011;12772;49.794;10.024;2023-04-25T01:10:49;3.67;;;3.22;;
24635;SDS011;12772;49.794;10.024;2023-04-25T01:14:51;3.55;;;3.25;;
24635;SDS011;12772;49.794;10.024;2023-04-25T01:18:53;3.17;;;2.88;;
24635;SDS011;12772;49.794;10.024;2023-04-25T01:22:56;3.53;;;3.20;;
24635;SDS011;12772;49.794;10.024;2023-04-25T01:26:58;3.17;;;2.97;;
24635;SDS011;12772;49.794;10.024;2023-04-25T01:31:02;3.70;;;3.40;;
24635;SDS011;12772;49.794;10.024;2023-04-25T01:35:05;3.58;;;2.90;;
24635;SDS011;12772;49.794;10.024;2023-04-25T01:39:09;4.13;;;3.70;;
24635;SDS011;12772;49.794;10.024;2023-04-25T01:43:12;3.95;;;3.15;;
24635;SDS011;12772;49.794;10.024;2023-04-25T01:47:14;4.07;;;3.10;;
24635;SDS011;12772;49.794;10.024;2023-04-25T01:51:17;2.88;;;2.50;;
24635;SDS011;12772;49.794;10.024;2023-04-25T01:55:19;2.20;;;2.10;;
24635;SDS011;12772;49.794;10.024;2023-04-25T01:59:21;2.70;;;2.47;;
24635;SDS011;12772;49.794;10.024;2023-04-25T02:03:23;2.83;;;2.60;;
24635;SDS011;12772;49.794;10.024;2023-04-25T02:07:25;2.33;;;2.13;;
24635;SDS011;12772;49.794;10.024;2023-04-25T02:11:28;2.55;;;2.35;;
24635;SDS011;12772;49.794;10.024;2023-04-25T02:15:30;2.30;;;2.20;;
24635;SDS011;12772;49.794;10.024;2023-04-25T02:19:33;2.45;;;2.30;;
24635;SDS011;12772;49.794;10.024;2023-04-25T02:23:35;3.05;;;2.75;;
24635;SDS011;12772;49.794;10.024;2023-04-25T02:27:37;2.55;;;2.35;;
24635;SDS011;12772;49.794;10.024;2023-04-25T02:31:39;2.10;;;2.00;;
24635;SDS011;12772;49.794;10.024;2023-04-25T02:35:41;2.30;;;2.10;;
24635;SDS011;12772;49.794;10.024;2023-04-25T02:39:44;2.35;;;2.17;;
24635;SDS011;12772;49.794;10.024;2023-04-25T02:43:46;2.13;;;1.98;;
24635;SDS011;12772;49.794;10.024;2023-04-25T02:47:48;1.98;;;1.88;;
24635;SDS011;12772;49.794;10.024;2023-04-25T02:51:50;2.95;;;1.90;;
24635;SDS011;12772;49.794;10.024;2023-04-25T02:55:52;2.00;;;1.90;;
24635;SDS011;12772;49.794;10.024;2023-04-25T02:59:54;1.85;;;1.70;;
24635;SDS011;12772;49.794;10.024;2023-04-25T03:03:56;1.58;;;1.55;;
24635;SDS011;12772;49.794;10.024;2023-04-25T03:07:59;1.55;;;1.50;;
24635;SDS011;12772;49.794;10.024;2023-04-25T03:12:01;1.70;;;1.60;;
24635;SDS011;12772;49.794;10.024;2023-04-25T03:16:03;1.80;;;1.70;;
24635;SDS011;12772;49.794;10.024;2023-04-25T03:20:06;1.83;;;1.73;;
24635;SDS011;12772;49.794;10.024;2023-04-25T03:24:08;1.98;;;1.80;;
24635;SDS011;12772;49.794;10.024;2023-04-25T03:28:11;1.90;;;1.80;;
24635;SDS011;12772;49.794;10.024;2023-04-25T03:32:13;2.63;;;2.42;;
24635;SDS011;12772;49.794;10.024;2023-04-25T03:36:15;2.05;;;1.95;;
24635;SDS011;12772;49.794;10.024;2023-04-25T03:40:17;2.55;;;2.35;;
24635;SDS011;12772;49.794;10.024;2023-04-25T03:44:19;5.43;;;2.78;;
24635;SDS011;12772;49.794;10.024;2023-04-25T03:48:22;2.65;;;2.45;;
24635;SDS011;12772;49.794;10.024;2023-04-25T03:52:25;2.80;;;2.60;;
24635;SDS011;12772;49.794;10.024;2023-04-25T03:56:27;3.25;;;3.05;;
24635;SDS011;12772;49.794;10.024;2023-04-25T04:00:29;3.53;;;3.22;;
24635;SDS011;12772;49.794;10.024;2023-04-25T04:04:31;3.20;;;3.00;;
24635;SDS011;12772;49.794;10.024;2023-04-25T04:08:33;3.75;;;3.45;;
24635;SDS011;12772;49.794;10.024;2023-04-25T04:12:36;3.55;;;3.25;;
24635;SDS011;12772;49.794;10.024;2023-04-25T04:16:38;4.15;;;3.85;;
24635;SDS011;12772;49.794;10.024;2023-04-25T04:20:40;4.65;;;4.25;;
24635;SDS011;12772;49.794;10.024;2023-04-25T04:24:42;4.60;;;4.20;;
24635;SDS011;12772;49.794;10.024;2023-04-25T04:28:46;5.53;;;4.35;;
24635;SDS011;12772;49.794;10.024;2023-04-25T04:32:48;5.38;;;4.75;;
24635;SDS011;12772;49.794;10.024;2023-04-25T04:36:51;6.25;;;5.05;;
24635;SDS011;12772;49.794;10.024;2023-04-25T04:40:53;6.13;;;5.07;;
24635;SDS011;12772;49.794;10.024;2023-04-25T04:44:56;4.55;;;4.25;;
24635;SDS011;12772;49.794;10.024;2023-04-25T04:48:58;5.57;;;4.80;;
24635;SDS011;12772;49.794;10.024;2023-04-25T04:53:01;5.25;;;4.80;;
24635;SDS011;12772;49.794;10.024;2023-04-25T04:57:04;4.90;;;4.50;;
24635;SDS011;12772;49.794;10.024;2023-04-25T05:01:06;4.43;;;4.03;;
24635;SDS011;12772;49.794;10.024;2023-04-25T05:05:08;4.38;;;4.07;;
24635;SDS011;12772;49.794;10.024;2023-04-25T05:09:10;5.18;;;4.57;;
24635;SDS011;12772;49.794;10.024;2023-04-25T05:13:12;4.97;;;4.57;;
24635;SDS011;12772;49.794;10.024;2023-04-25T05:17:15;5.70;;;5.15;;
24635;SDS011;12772;49.794;10.024;2023-04-25T05:21:17;4.80;;;4.40;;
24635;SDS011;12772;49.794;10.024;2023-04-25T05:25:19;5.13;;;4.70;;
24635;SDS011;12772;49.794;10.024;2023-04-25T05:29:21;5.40;;;5.00;;
24635;SDS011;12772;49.794;10.024;2023-04-25T05:33:23;5.60;;;5.10;;
24635;SDS011;12772;49.794;10.024;2023-04-25T05:37:25;5.40;;;4.93;;
24635;SDS011;12772;49.794;10.024;2023-04-25T05:41:27;5.40;;;5.00;;
24635;SDS011;12772;49.794;10.024;2023-04-25T05:45:29;5.97;;;5.47;;
24635;SDS011;12772;49.794;10.024;2023-04-25T05:49:31;6.55;;;5.88;;
24635;SDS011;12772;49.794;10.024;2023-04-25T05:53:34;7.00;;;6.35;;
24635;SDS011;12772;49.794;10.024;2023-04-25T05:57:37;6.00;;;5.50;;
24635;SDS011;12772;49.794;10.024;2023-04-25T06:01:41;6.60;;;6.00;;
24635;SDS011;12772;49.794;10.024;2023-04-25T06:05:43;6.93;;;6.22;;
24635;SDS011;12772;49.794;10.024;2023-04-25T06:09:46;6.32;;;5.82;;
24635;SDS011;12772;49.794;10.024;2023-04-25T06:13:48;7.10;;;6.40;;
24635;SDS011;12772;49.794;10.024;2023-04-25T06:17:50;7.57;;;6.28;;
24635;SDS011;12772;49.794;10.024;2023-04-25T06:21:52;6.65;;;5.90;;
24635;SDS011;12772;49.794;10.024;2023-04-25T06:25:54;6.65;;;6.05;;
24635;SDS011;12772;49.794;10.024;2023-04-25T06:29:56;5.78;;;5.30;;
24635;SDS011;12772;49.794;10.024;2023-04-25T06:33:58;7.65;;;6.78;;
24635;SDS011;12772;49.794;10.024;2023-04-25T06:38:00;6.80;;;6.15;;
24635;SDS011;12772;49.794;10.024;2023-04-25T06:42:02;6.30;;;5.70;;
24635;SDS011;12772;49.794;10.024;2023-04-25T06:46:04;8.35;;;6.32;;
24635;SDS011;12772;49.794;10.024;2023-04-25T06:50:07;6.63;;;5.93;;
24635;SDS011;12772;49.794;10.024;2023-04-25T06:54:09;6.65;;;5.18;;
24635;SDS011;12772;49.794;10.024;2023-04-25T06:58:11;5.50;;;5.00;;
24635;SDS011;12772;49.794;10.024;2023-04-25T07:02:13;5.57;;;5.05;;
24635;SDS011;12772;49.794;10.024;2023-04-25T07:06:15;7.22;;;4.68;;
24635;SDS011;12772;49.794;10.024;2023-04-25T07:10:17;7.35;;;5.53;;
24635;SDS011;12772;49.794;10.024;2023-04-25T07:14:21;9.30;;;5.18;;
24635;SDS011;12772;49.794;10.024;2023-04-25T07:18:24;4.88;;;4.13;;
24635;SDS011;12772;49.794;10.024;2023-04-25T07:22:26;5.15;;;4.18;;
24635;SDS011;12772;49.794;10.024;2023-04-25T07:26:28;4.80;;;3.90;;
24635;SDS011;12772;49.794;10.024;2023-04-25T07:30:31;4.18;;;3.67;;
24635;SDS011;12772;49.794;10.024;2023-04-25T07:34:34;4.60;;;4.10;;
24635;SDS011;12772;49.794;10.024;2023-04-25T07:38:38;6.97;;;4.32;;
24635;SDS011;12772;49.794;10.024;2023-04-25T07:42:41;4.88;;;3.00;;
24635;SDS011;12772;49.794;10.024;2023-04-25T07:46:43;3.50;;;2.90;;
24635;SDS011;12772;49.794;10.024;2023-04-25T07:50:45;5.50;;;3.25;;
24635;SDS011;12772;49.794;10.024;2023-04-25T07:54:47;5.15;;;2.90;;
24635;SDS011;12772;49.794;10.024;2023-04-25T07:58:49;4.53;;;2.58;;
24635;SDS011;12772;49.794;10.024;2023-04-25T08:02:51;4.82;;;3.28;;
24635;SDS011;12772;49.794;10.024;2023-04-25T08:06:53;3.38;;;2.45;;
24635;SDS011;12772;49.794;10.024;2023-04-25T08:10:55;3.95;;;2.60;;
24635;SDS011;12772;49.794;10.024;2023-04-25T08:14:57;3.58;;;2.20;;
24635;SDS011;12772;49.794;10.024;2023-04-25T08:19:00;4.78;;;2.33;;
24635;SDS011;12772;49.794;10.024;2023-04-25T08:23:02;2.30;;;1.83;;
24635;SDS011;12772;49.794;10.024;2023-04-25T08:27:04;2.90;;;2.13;;
24635;SDS011;12772;49.794;10.024;2023-04-25T08:31:08;2.28;;;2.00;;
24635;SDS011;12772;49.794;10.024;2023-04-25T08:35:10;3.65;;;2.60;;
24635;SDS011;12772;49.794;10.024;2023-04-25T08:39:13;5.22;;;2.08;;
24635;SDS011;12772;49.794;10.024;2023-04-25T08:43:15;3.83;;;2.50;;
24635;SDS011;12772;49.794;10.024;2023-04-25T08:47:21;4.25;;;2.47;;
24635;SDS011;12772;49.794;10.024;2023-04-25T08:51:24;2.45;;;2.15;;
24635;SDS011;12772;49.794;10.024;2023-04-25T08:55:28;2.47;;;2.20;;
24635;SDS011;12772;49.794;10.024;2023-04-25T08:59:32;2.78;;;2.53;;
24635;SDS011;12772;49.794;10.024;2023-04-25T09:03:34;2.35;;;2.15;;
24635;SDS011;12772;49.794;10.024;2023-04-25T09:07:37;3.40;;;2.50;;
24635;SDS011;12772;49.794;10.024;2023-04-25T09:11:39;2.20;;;1.92;;
24635;SDS011;12772;49.794;10.024;2023-04-25T09:15:48;2.85;;;1.70;;
24635;SDS011;12772;49.794;10.024;2023-04-25T09:20:09;1.80;;;1.70;;
24635;SDS011;12772;49.794;10.024;2023-04-25T09:24:13;5.65;;;2.10;;
24635;SDS011;12772;49.794;10.024;2023-04-25T09:28:15;1.70;;;1.60;;
24635;SDS011;12772;49.794;10.024;2023-04-25T09:32:18;1.45;;;1.42;;
24635;SDS011;12772;49.794;10.024;2023-04-25T09:36:23;2.00;;;1.90;;
24635;SDS011;12772;49.794;10.024;2023-04-25T09:40:28;1.88;;;1.70;;
24635;SDS011;12772;49.794;10.024;2023-04-25T09:44:31;1.60;;;1.50;;
24635;SDS011;12772;49.794;10.024;2023-04-25T09:48:34;4.50;;;1.60;;
24635;SDS011;12772;49.794;10.024;2023-04-25T09:52:36;1.75;;;1.65;;
24635;SDS011;12772;49.794;10.024;2023-04-25T09:56:38;2.00;;;1.90;;
24635;SDS011;12772;49.794;10.024;2023-04-25T10:00:40;1.80;;;1.70;;
24635;SDS011;12772;49.794;10.024;2023-04-25T10:04:43;1.80;;;1.52;;
24635;SDS011;12772;49.794;10.024;2023-04-25T10:08:48;2.75;;;1.80;;
24635;SDS011;12772;49.794;10.024;2023-04-25T10:12:53;2.10;;;1.63;;
24635;SDS011;12772;49.794;10.024;2023-04-25T10:16:56;2.72;;;2.25;;
24635;SDS011;12772;49.794;10.024;2023-04-25T10:21:03;2.05;;;1.85;;
24635;SDS011;12772;49.794;10.024;2023-04-25T10:25:06;2.00;;;1.90;;
24635;SDS011;12772;49.794;10.024;2023-04-25T10:29:09;1.90;;;1.80;;
24635;SDS011;12772;49.794;10.024;2023-04-25T10:33:16;2.17;;;1.70;;
24635;SDS011;12772;49.794;10.024;2023-04-25T10:37:19;2.92;;;2.20;;
24635;SDS011;12772;49.794;10.024;2023-04-25T10:41:21;2.08;;;1.73;;
24635;SDS011;12772;49.794;10.024;2023-04-25T10:45:24;2.83;;;1.95;;
24635;SDS011;12772;49.794;10.024;2023-04-25T10:49:34;1.75;;;1.65;;
24635;SDS011;12772;49.794;10.024;2023-04-25T10:53:46;2.55;;;1.90;;
24635;SDS011;12772;49.794;10.024;2023-04-25T10:57:57;3.17;;;2.42;;
24635;SDS011;12772;49.794;10.024;2023-04-25T11:01:59;3.13;;;2.53;;
24635;SDS011;12772;49.794;10.024;2023-04-25T11:06:23;2.00;;;1.90;;
24635;SDS011;12772;49.794;10.024;2023-04-25T11:10:34;2.05;;;1.92;;
24635;SDS011;12772;49.794;10.024;2023-04-25T11:14:36;4.10;;;2.13;;
24635;SDS011;12772;49.794;10.024;2023-04-25T11:18:42;3.55;;;2.15;;
24635;SDS011;12772;49.794;10.024;2023-04-25T11:22:45;2.28;;;1.98;;
24635;SDS011;12772;49.794;10.024;2023-04-25T11:26:48;6.03;;;2.20;;
24635;SDS011;12772;49.794;10.024;2023-04-25T11:30:51;2.40;;;2.15;;
24635;SDS011;12772;49.794;10.024;2023-04-25T11:34:53;2.45;;;2.20;;
24635;SDS011;12772;49.794;10.024;2023-04-25T11:38:55;2.25;;;2.03;;
24635;SDS011;12772;49.794;10.024;2023-04-25T11:42:59;1.70;;;1.60;;
24635;SDS011;12772;49.794;10.024;2023-04-25T11:47:02;2.10;;;1.92;;
24635;SDS011;12772;49.794;10.024;2023-04-25T11:51:04;2.35;;;1.77;;
24635;SDS011;12772;49.794;10.024;2023-04-25T11:55:12;3.35;;;2.13;;
24635;SDS011;12772;49.794;10.024;2023-04-25T11:59:16;2.95;;;2.38;;
24635;SDS011;12772;49.794;10.024;2023-04-25T12:03:24;2.42;;;2.20;;
24635;SDS011;12772;49.794;10.024;2023-04-25T12:07:31;2.55;;;2.35;;
24635;SDS011;12772;49.794;10.024;2023-04-25T12:11:40;2.90;;;2.70;;
24635;SDS011;12772;49.794;10.024;2023-04-25T12:15:44;2.70;;;2.50;;
24635;SDS011;12772;49.794;10.024;2023-04-25T12:19:46;3.92;;;2.20;;
24635;SDS011;12772;49.794;10.024;2023-04-25T12:23:48;2.90;;;2.60;;
24635;SDS011;12772;49.794;10.024;2023-04-25T12:27:50;2.38;;;2.17;;
24635;SDS011;12772;49.794;10.024;2023-04-25T12:31:54;3.45;;;2.42;;
24635;SDS011;12772;49.794;10.024;2023-04-25T12:35:57;2.63;;;2.42;;
24635;SDS011;12772;49.794;10.024;2023-04-25T12:40:01;3.15;;;2.85;;
24635;SDS011;12772;49.794;10.024;2023-04-25T12:44:04;3.08;;;2.53;;
24635;SDS011;12772;49.794;10.024;2023-04-25T12:48:06;3.55;;;2.75;;
24635;SDS011;12772;49.794;10.024;2023-04-25T12:52:08;4.18;;;3.17;;
24635;SDS011;12772;49.794;10.024;2023-04-25T12:56:10;3.55;;;3.15;;
24635;SDS011;12772;49.794;10.024;2023-04-25T13:00:13;2.92;;;2.63;;
24635;SDS011;12772;49.794;10.024;2023-04-25T13:04:18;3.53;;;2.80;;
24635;SDS011;12772;49.794;10.024;2023-04-25T13:08:33;4.70;;;2.80;;
24635;SDS011;12772;49.794;10.024;2023-04-25T13:12:37;3.88;;;3.20;;
24635;SDS011;12772;49.794;10.024;2023-04-25T13:16:39;3.00;;;2.70;;
24635;SDS011;12772;49.794;10.024;2023-04-25T13:20:41;3.97;;;3.45;;
24635;SDS011;12772;49.794;10.024;2023-04-25T13:24:43;4.40;;;3.85;;
24635;SDS011;12772;49.794;10.024;2023-04-25T13:28:45;9.32;;;3.22;;
24635;SDS011;12772;49.794;10.024;2023-04-25T13:32:48;4.95;;;3.17;;
24635;SDS011;12772;49.794;10.024;2023-04-25T13:36:50;4.65;;;3.58;;
24635;SDS011;12772;49.794;10.024;2023-04-25T13:40:52;3.92;;;3.53;;
24635;SDS011;12772;49.794;10.024;2023-04-25T13:44:54;3.40;;;2.90;;
24635;SDS011;12772;49.794;10.024;2023-04-25T13:48:56;4.15;;;3.00;;
24635;SDS011;12772;49.794;10.024;2023-04-25T13:52:58;3.13;;;2.83;;
24635;SDS011;12772;49.794;10.024;2023-04-25T13:57:00;4.93;;;2.90;;
24635;SDS011;12772;49.794;10.024;2023-04-25T14:01:02;3.65;;;2.75;;
24635;SDS011;12772;49.794;10.024;2023-04-25T14:05:05;4.05;;;3.25;;
24635;SDS011;12772;49.794;10.024;2023-04-25T14:09:08;3.05;;;2.85;;
24635;SDS011;12772;49.794;10.024;2023-04-25T14:13:10;5.05;;;2.80;;
24635;SDS011;12772;49.794;10.024;2023-04-25T14:17:12;3.97;;;2.80;;
24635;SDS011;12772;49.794;10.024;2023-04-25T14:21:15;2.75;;;2.55;;
24635;SDS011;12772;49.794;10.024;2023-04-25T14:25:17;3.20;;;2.10;;
24635;SDS011;12772;49.794;10.024;2023-04-25T14:29:19;4.57;;;2.50;;
24635;SDS011;12772;49.794;10.024;2023-04-25T14:33:21;3.83;;;2.67;;
24635;SDS011;12772;49.794;10.024;2023-04-25T14:37:24;2.58;;;2.00;;
24635;SDS011;12772;49.794;10.024;2023-04-25T14:41:26;2.95;;;2.67;;
24635;SDS011;12772;49.794;10.024;2023-04-25T14:45:28;3.20;;;2.22;;
24635;SDS011;12772;49.794;10.024;2023-04-25T14:49:31;3.25;;;2.42;;
24635;SDS011;12772;49.794;10.024;2023-04-25T14:53:34;3.15;;;2.45;;
24635;SDS011;12772;49.794;10.024;2023-04-25T14:57:36;3.55;;;2.63;;
24635;SDS011;12772;49.794;10.024;2023-04-25T15:01:39;2.30;;;2.10;;
24635;SDS011;12772;49.794;10.024;2023-04-25T15:05:42;3.05;;;2.42;;
24635;SDS011;12772;49.794;10.024;2023-04-25T15:09:45;2.42;;;2.08;;
24635;SDS011;12772;49.794;10.024;2023-04-25T15:13:48;3.38;;;2.30;;
24635;SDS011;12772;49.794;10.024;2023-04-25T15:17:51;3.00;;;2.05;;
24635;SDS011;12772;49.794;10.024;2023-04-25T15:21:54;8.85;;;4.10;;
24635;SDS011;12772;49.794;10.024;2023-04-25T15:25:56;7.25;;;4.32;;
24635;SDS011;12772;49.794;10.024;2023-04-25T15:29:58;13.18;;;5.72;;
24635;SDS011;12772;49.794;10.024;2023-04-25T15:34:01;4.68;;;3.20;;
24635;SDS011;12772;49.794;10.024;2023-04-25T15:38:03;4.72;;;2.78;;
24635;SDS011;12772;49.794;10.024;2023-04-25T15:42:05;3.63;;;2.20;;
24635;SDS011;12772;49.794;10.024;2023-04-25T15:46:09;4.28;;;2.17;;
24635;SDS011;12772;49.794;10.024;2023-04-25T15:50:11;3.38;;;2.25;;
24635;SDS011;12772;49.794;10.024;2023-04-25T15:54:14;4.20;;;2.25;;
24635;SDS011;12772;49.794;10.024;2023-04-25T15:58:16;3.45;;;2.15;;
24635;SDS011;12772;49.794;10.024;2023-04-25T16:02:19;7.57;;;2.67;;
24635;SDS011;12772;49.794;10.024;2023-04-25T16:06:21;4.03;;;2.15;;
24635;SDS011;12772;49.794;10.024;2023-04-25T16:10:23;3.65;;;2.22;;
24635;SDS011;12772;49.794;10.024;2023-04-25T16:14:25;3.25;;;2.05;;
24635;SDS011;12772;49.794;10.024;2023-04-25T16:18:28;3.58;;;2.42;;
24635;SDS011;12772;49.794;10.024;2023-04-25T16:22:33;3.58;;;2.30;;
24635;SDS011;12772;49.794;10.024;2023-04-25T16:26:35;3.90;;;2.60;;
24635;SDS011;12772;49.794;10.024;2023-04-25T16:30:37;5.70;;;2.78;;
24635;SDS011;12772;49.794;10.024;2023-04-25T16:34:39;6.72;;;2.90;;
24635;SDS011;12772;49.794;10.024;2023-04-25T16:38:41;5.68;;;2.78;;
24635;SDS011;12772;49.794;10.024;2023-04-25T16:42:44;4.05;;;2.10;;
24635;SDS011;12772;49.794;10.024;2023-04-25T16:46:46;3.45;;;2.17;;
24635;SDS011;12772;49.794;10.024;2023-04-25T16:50:48;3.28;;;2.17;;
24635;SDS011;12772;49.794;10.024;2023-04-25T16:54:51;2.05;;;1.90;;
24635;SDS011;12772;49.794;10.024;2023-04-25T16:58:54;9.55;;;7.00;;
24635;SDS011;12772;49.794;10.024;2023-04-25T17:02:56;6.78;;;5.43;;
24635;SDS011;12772;49.794;10.024;2023-04-25T17:06:58;11.32;;;4.90;;
24635;SDS011;12772;49.794;10.024;2023-04-25T17:11:00;11.32;;;6.70;;
24635;SDS011;12772;49.794;10.024;2023-04-25T17:15:03;6.47;;;5.28;;
24635;SDS011;12772;49.794;10.024;2023-04-25T17:19:08;6.65;;;4.10;;
24635;SDS011;12772;49.794;10.024;2023-04-25T17:23:10;6.55;;;3.33;;
24635;SDS011;12772;49.794;10.024;2023-04-25T17:27:13;5.80;;;3.05;;
24635;SDS011;12772;49.794;10.024;2023-04-25T17:31:15;3.67;;;2.42;;
24635;SDS011;12772;49.794;10.024;2023-04-25T17:35:18;5.03;;;2.55;;
24635;SDS011;12772;49.794;10.024;2023-04-25T17:39:20;4.03;;;2.60;;
24635;SDS011;12772;49.794;10.024;2023-04-25T17:43:23;4.07;;;2.20;;
24635;SDS011;12772;49.794;10.024;2023-04-25T17:47:26;3.10;;;2.63;;
24635;SDS011;12772;49.794;10.024;2023-04-25T17:51:28;9.15;;;2.60;;
24635;SDS011;12772;49.794;10.024;2023-04-25T17:55:30;3.35;;;2.63;;
24635;SDS011;12772;49.794;10.024;2023-04-25T17:59:33;4.53;;;2.33;;
24635;SDS011;12772;49.794;10.024;2023-04-25T18:03:35;5.50;;;3.38;;
24635;SDS011;12772;49.794;10.024;2023-04-25T18:07:39;5.40;;;2.83;;
24635;SDS011;12772;49.794;10.024;2023-04-25T18:11:45;6.40;;;3.17;;
24635;SDS011;12772;49.794;10.024;2023-04-25T18:15:48;6.63;;;5.97;;
24635;SDS011;12772;49.794;10.024;2023-04-25T18:19:51;6.40;;;4.47;;
24635;SDS011;12772;49.794;10.024;2023-04-25T18:23:56;4.30;;;3.90;;
24635;SDS011;12772;49.794;10.024;2023-04-25T18:27:58;4.15;;;2.90;;
24635;SDS011;12772;49.794;10.024;2023-04-25T18:32:00;4.05;;;2.80;;
24635;SDS011;12772;49.794;10.024;2023-04-25T18:36:04;5.35;;;3.70;;
24635;SDS011;12772;49.794;10.024;2023-04-25T18:40:06;18.52;;;3.25;;
24635;SDS011;12772;49.794;10.024;2023-04-25T18:44:12;7.20;;;3.67;;
24635;SDS011;12772;49.794;10.024;2023-04-25T18:48:14;4.65;;;3.90;;
24635;SDS011;12772;49.794;10.024;2023-04-25T18:52:16;4.60;;;3.47;;
24635;SDS011;12772;49.794;10.024;2023-04-25T18:56:19;7.20;;;3.10;;
24635;SDS011;12772;49.794;10.024;2023-04-25T19:00:22;6.20;;;3.17;;
24635;SDS011;12772;49.794;10.024;2023-04-25T19:04:24;4.70;;;3.03;;
24635;SDS011;12772;49.794;10.024;2023-04-25T19:08:27;7.40;;;3.00;;
24635;SDS011;12772;49.794;10.024;2023-04-25T19:12:29;6.07;;;3.25;;
24635;SDS011;12772;49.794;10.024;2023-04-25T19:16:33;5.22;;;2.58;;
24635;SDS011;12772;49.794;10.024;2023-04-25T19:20:38;6.25;;;2.63;;
24635;SDS011;12772;49.794;10.024;2023-04-25T19:24:40;5.75;;;2.75;;
24635;SDS011;12772;49.794;10.024;2023-04-25T19:28:42;4.80;;;2.53;;
24635;SDS011;12772;49.794;10.024;2023-04-25T19:32:45;3.55;;;2.30;;
24635;SDS011;12772;49.794;10.024;2023-04-25T19:36:47;4.32;;;2.40;;
24635;SDS011;12772;49.794;10.024;2023-04-25T19:40:52;5.60;;;2.67;;
24635;SDS011;12772;49.794;10.024;2023-04-25T19:44:54;5.60;;;2.90;;
24635;SDS011;12772;49.794;10.024;2023-04-25T19:48:56;4.20;;;2.85;;
24635;SDS011;12772;49.794;10.024;2023-04-25T19:52:59;4.10;;;2.30;;
24635;SDS011;12772;49.794;10.024;2023-04-25T19:57:01;6.75;;;2.60;;
24635;SDS011;12772;49.794;10.024;2023-04-25T20:01:03;3.10;;;2.38;;
24635;SDS011;12772;49.794;10.024;2023-04-25T20:05:06;4.60;;;2.38;;
24635;SDS011;12772;49.794;10.024;2023-04-25T20:09:09;2.55;;;2.33;;
24635;SDS011;12772;49.794;10.024;2023-04-25T20:13:11;4.10;;;2.40;;
24635;SDS011;12772;49.794;10.024;2023-04-25T20:17:15;2.53;;;2.30;;
24635;SDS011;12772;49.794;10.024;2023-04-25T20:21:18;8.35;;;2.42;;
24635;SDS011;12772;49.794;10.024;2023-04-25T20:25:20;3.85;;;2.38;;
24635;SDS011;12772;49.794;10.024;2023-04-25T20:29:24;6.18;;;3.20;;
24635;SDS011;12772;49.794;10.024;2023-04-25T20:33:27;4.28;;;2.63;;
24635;SDS011;12772;49.794;10.024;2023-04-25T20:37:29;5.35;;;3.00;;
24635;SDS011;12772;49.794;10.024;2023-04-25T20:41:33;5.40;;;2.60;;
24635;SDS011;12772;49.794;10.024;2023-04-25T20:45:37;5.50;;;2.95;;
24635;SDS011;12772;49.794;10.024;2023-04-25T20:49:40;4.97;;;2.47;;
24635;SDS011;12772;49.794;10.024;2023-04-25T20:53:42;6.40;;;2.92;;
24635;SDS011;12772;49.794;10.024;2023-04-25T20:57:44;3.97;;;3.03;;
24635;SDS011;12772;49.794;10.024;2023-04-25T21:01:46;5.68;;;2.72;;
24635;SDS011;12772;49.794;10.024;2023-04-25T21:05:48;3.47;;;2.67;;
24635;SDS011;12772;49.794;10.024;2023-04-25T21:09:50;5.65;;;3.45;;
24635;SDS011;12772;49.794;10.024;2023-04-25T21:13:55;3.95;;;3.40;;
24635;SDS011;12772;49.794;10.024;2023-04-25T21:17:57;4.78;;;3.38;;
24635;SDS011;12772;49.794;10.024;2023-04-25T21:21:59;4.60;;;3.22;;
24635;SDS011;12772;49.794;10.024;2023-04-25T21:26:03;5.55;;;3.10;;
24635;SDS011;12772;49.794;10.024;2023-04-25T21:30:05;4.25;;;3.20;;
24635;SDS011;12772;49.794;10.024;2023-04-25T21:34:08;3.92;;;2.85;;
24635;SDS011;12772;49.794;10.024;2023-04-25T21:38:10;4.50;;;3.08;;
24635;SDS011;12772;49.794;10.024;2023-04-25T21:42:15;4.25;;;3.17;;
24635;SDS011;12772;49.794;10.024;2023-04-25T21:46:17;4.28;;;3.05;;
24635;SDS011;12772;49.794;10.024;2023-04-25T21:50:21;8.70;;;3.58;;
24635;SDS011;12772;49.794;10.024;2023-04-25T21:54:23;6.10;;;3.72;;
24635;SDS011;12772;49.794;10.024;2023-04-25T21:58:26;4.95;;;3.00;;
24635;SDS011;12772;49.794;10.024;2023-04-25T22:02:28;4.57;;;3.13;;
24635;SDS011;12772;49.794;10.024;2023-04-25T22:06:31;4.88;;;2.90;;
24635;SDS011;12772;49.794;10.024;2023-04-25T22:10:33;7.47;;;4.30;;
24635;SDS011;12772;49.794;10.024;2023-04-25T22:14:35;6.30;;;4.07;;
24635;SDS011;12772;49.794;10.024;2023-04-25T22:18:38;5.72;;;3.40;;
24635;SDS011;12772;49.794;10.024;2023-04-25T22:22:41;6.88;;;3.35;;
24635;SDS011;12772;49.794;10.024;2023-04-25T22:26:44;5.22;;;3.55;;
24635;SDS011;12772;49.794;10.024;2023-04-25T22:30:46;5.22;;;3.20;;
24635;SDS011;12772;49.794;10.024;2023-04-25T22:34:48;4.18;;;3.10;;
24635;SDS011;12772;49.794;10.024;2023-04-25T22:38:51;3.22;;;2.92;;
24635;SDS011;12772;49.794;10.024;2023-04-25T22:42:53;4.38;;;3.20;;
24635;SDS011;12772;49.794;10.024;2023-04-25T22:46:56;4.57;;;3.17;;
24635;SDS011;12772;49.794;10.024;2023-04-25T22:51:01;4.25;;;3.40;;
24635;SDS011;12772;49.794;10.024;2023-04-25T22:55:04;4.35;;;3.60;;
24635;SDS011;12772;49.794;10.024;2023-04-25T22:59:07;3.47;;;3.03;;
24635;SDS011;12772;49.794;10.024;2023-04-25T23:03:10;7.00;;;4.35;;
24635;SDS011;12772;49.794;10.024;2023-04-25T23:07:13;5.40;;;3.60;;
24635;SDS011;12772;49.794;10.024;2023-04-25T23:11:15;6.20;;;4.18;;
24635;SDS011;12772;49.794;10.024;2023-04-25T23:15:17;4.82;;;3.75;;
24635;SDS011;12772;49.794;10.024;2023-04-25T23:19:23;5.05;;;3.75;;
24635;SDS011;12772;49.794;10.024;2023-04-25T23:23:26;4.70;;;3.63;;
24635;SDS011;12772;49.794;10.024;2023-04-25T23:27:28;4.93;;;3.90;;
24635;SDS011;12772;49.794;10.024;2023-04-25T23:31:30;5.50;;;3.88;;
24635;SDS011;12772;49.794;10.024;2023-04-25T23:35:35;3.58;;;2.80;;
24635;SDS011;12772;49.794;10.024;2023-04-25T23:39:37;3.47;;;3.17;;
24635;SDS011;12772;49.794;10.024;2023-04-25T23:43:40;6.35;;;4.00;;
24635;SDS011;12772;49.794;10.024;2023-04-25T23:47:42;5.18;;;3.63;;
24635;SDS011;12772;49.794;10.024;2023-04-25T23:51:44;5.63;;;3.72;;
24635;SDS011;12772;49.794;10.024;2023-04-25T23:55:46;7.13;;;3.63;;
24635;SDS011;12772;49.794;10.024;2023-04-25T23:59:48;7.57;;;3.63;;
